| Date | Time | Temp. (oF) | Dew Point (oF) | Rel. Hum. (%) | Press. (in.) | Wind Dir. | Wind Speed (mph) | Hourly Rainfall (in.) |
|
|---|---|---|---|---|---|---|---|---|---|
| 1 | 07/10 | 00:00 | 77 | 72 | 87 | 29.80 | SE | 3 | 0.00 |
| 2 | 07/09 | 23:00 | 78 | 72 | 84 | 29.82 | SE | 2 | 0.00 |
| 3 | 07/09 | 22:00 | 78 | 71 | 81 | 29.82 | SSE | 2 | 0.00 |
| 4 | 07/09 | 21:00 | 79 | 70 | 76 | 29.81 | SSE | 3 | 0.00 |
| 5 | 07/09 | 20:00 | 82 | 70 | 69 | 29.79 | SSW | 3 | 0.00 |
| 6 | 07/09 | 19:00 | 85 | 70 | 63 | 29.76 | ESE | 5 | 0.00 |
| 7 | 07/09 | 18:00 | 87 | 70 | 59 | 29.78 | ESE | 3 | 0.00 |
| 8 | 07/09 | 17:00 | 87 | 70 | 58 | 29.79 | SE | 6 | 0.00 |
| 9 | 07/09 | 16:00 | 90 | 71 | 55 | 29.82 | NE | 4 | 0.00 |
| 10 | 07/09 | 15:00 | 90 | 72 | 56 | 29.84 | SSE | 4 | 0.00 |
| 11 | 07/09 | 14:00 | 89 | 72 | 58 | 29.87 | W | 4 | 0.00 |
| 12 | 07/09 | 13:00 | 88 | 73 | 62 | 29.90 | SSW | 5 | 0.00 |
| 13 | 07/09 | 12:00 | 86 | 70 | 61 | 29.92 | S | 5 | 0.00 |
| 14 | 07/09 | 11:00 | 82 | 72 | 73 | 29.95 | NE | 2 | 0.00 |
| 15 | 07/09 | 10:00 | 82 | 73 | 76 | 29.96 | WSW | 3 | 0.00 |
| 16 | 07/09 | 09:00 | 79 | 74 | 86 | 29.97 | ESE | 5 | 0.00 |
| 17 | 07/09 | 08:00 | 75 | 74 | 97 | 29.98 | SE | 2 | 0.00 |
| 18 | 07/09 | 07:00 | 73 | 72 | 98 | 29.98 | ENE | 3 | 0.00 |
| 19 | 07/09 | 06:00 | 72 | 71 | 97 | 29.97 | ESE | 1 | 0.00 |
| 20 | 07/09 | 05:00 | 72 | 70 | 96 | 29.98 | ESE | 0 | 0.00 |
| 21 | 07/09 | 04:00 | 72 | 70 | 94 | 29.98 | ESE | 0 | 0.00 |
| 22 | 07/09 | 03:00 | 73 | 70 | 92 | 29.99 | ESE | 2 | 0.00 |
| 23 | 07/09 | 02:00 | 74 | 70 | 89 | 30.00 | ESE | 1 | 0.01 |
| 24 | 07/09 | 01:00 | 76 | 68 | 79 | 30.00 | SSE | 1 | 0.00 |